Time;durP1;ratioP1;P1;durP2;ratioP2;P2;SDS_P1;SDS_P2;PMS_P1;PMS_P2;Temp;Humidity;BMP_temperature;BMP_pressure;BME280_temperature;BME280_humidity;BME280_pressure;Samples;Min_cycle;Max_cycle;Signal;HPM_P1;HPM_P2
2021/12/10 00:01:35;;;;;;;;;;;;;;;2.76;100.00;99783.44;5049034;28;19925;-52
2021/12/10 00:04:02;;;;;;;;;;;;;;;2.82;100.00;99777.97;5049645;28;19925;-51
2021/12/10 00:06:33;;;;;;;;;;;;;;;2.79;100.00;99772.91;5050027;28;19932;-51
2021/12/10 00:09:03;;;;;;;;;;;;;;;2.77;100.00;99755.72;5050397;28;19929;-52
2021/12/10 00:11:34;;;;;;;;;;;;;;;2.69;100.00;99762.13;5052955;28;19925;-50
2021/12/10 00:14:02;;;;;;;;;;;;;;;2.64;100.00;99755.50;5052675;28;19933;-51
2021/12/10 00:16:28;;;;;;;;;;;;;;;2.63;100.00;99744.28;5052571;28;19929;-53
2021/12/10 00:19:08;;;;;;;;;;;;;;;2.59;100.00;99741.91;5050578;28;19929;-50
2021/12/10 00:21:35;;;;;;;;;;;;;;;2.52;100.00;99736.16;5078869;28;20002;-49
2021/12/10 00:24:02;;;;;;;;;;;;;;;2.55;100.00;99730.84;5064865;28;19931;-52
2021/12/10 00:26:29;;;;;;;;;;;;;;;2.45;100.00;99727.84;5049470;28;19925;-54
2021/12/10 00:29:02;;;;;;;;;;;;;;;2.40;100.00;99722.06;5081413;28;19966;-52
2021/12/10 00:34:12;;;;;;;;;;;;;;;2.47;100.00;99720.81;5052683;28;19924;-51
2021/12/10 00:36:39;;;;;;;;;;;;;;;2.42;100.00;99712.41;5052159;28;19932;-50
2021/12/10 00:39:08;;;;;;;;;;;;;;;2.39;100.00;99707.38;5052895;28;19933;-53
2021/12/10 00:41:35;;;;;;;;;;;;;;;2.35;100.00;99708.47;5052854;28;19991;-50
2021/12/10 00:44:02;;;;;;;;;;;;;;;2.29;100.00;99701.81;5084503;28;19925;-52
2021/12/10 00:46:29;;;;;;;;;;;;;;;2.36;100.00;99702.38;5052242;28;20307;-51
2021/12/10 00:48:56;;;;;;;;;;;;;;;2.35;100.00;99701.50;5049325;28;19933;-51
2021/12/10 00:51:23;;;;;;;;;;;;;;;2.15;100.00;99701.63;5083093;28;19932;-52
2021/12/10 00:53:49;;;;;;;;;;;;;;;2.20;100.00;99697.91;5084583;28;19974;-52
2021/12/10 00:56:16;;;;;;;;;;;;;;;2.14;100.00;99684.38;5052523;28;19932;-52
2021/12/10 00:58:43;;;;;;;;;;;;;;;2.15;100.00;99689.50;5052877;28;19925;-52
2021/12/10 01:01:17;;;;;;;;;;;;;;;2.08;100.00;99688.13;5051726;28;19925;-52
2021/12/10 01:03:46;;;;;;;;;;;;;;;2.09;100.00;99681.19;5049544;28;19932;-50
2021/12/10 01:06:13;;;;;;;;;;;;;;;2.01;100.00;99663.41;5049729;28;19925;-51
2021/12/10 01:08:42;;;;;;;;;;;;;;;2.09;100.00;99668.22;5050638;28;20970;-54
2021/12/10 01:11:10;;;;;;;;;;;;;;;2.03;100.00;99664.16;5080723;28;19983;-51
2021/12/10 01:13:39;;;;;;;;;;;;;;;2.08;100.00;99659.59;5081644;28;19924;-50
2021/12/10 01:24:49;;;;;;;;;;;;;;;2.12;100.00;99644.72;5051594;28;19929;-54
2021/12/10 01:27:28;;;;;;;;;;;;;;;2.12;100.00;99642.97;5048843;28;20471;-56
2021/12/10 01:29:57;;;;;;;;;;;;;;;2.05;100.00;99651.97;5064953;28;19925;-55
2021/12/10 01:32:32;;;;;;;;;;;;;;;2.01;100.00;99643.47;5055891;28;19928;-54
2021/12/10 01:34:58;;;;;;;;;;;;;;;1.96;100.00;99647.22;5055915;28;20433;-57
2021/12/10 01:37:25;;;;;;;;;;;;;;;1.96;100.00;99642.03;5087887;28;20670;-57
2021/12/10 01:39:53;;;;;;;;;;;;;;;1.89;100.00;99633.69;5086205;28;20459;-57
2021/12/10 01:44:54;;;;;;;;;;;;;;;1.98;100.00;99620.31;5066962;28;19978;-55
2021/12/10 01:47:23;;;;;;;;;;;;;;;1.89;100.00;99610.38;5051891;28;19971;-54
2021/12/10 01:49:50;;;;;;;;;;;;;;;1.88;100.00;99610.44;5055406;28;20023;-53
2021/12/10 01:52:17;;;;;;;;;;;;;;;1.88;100.00;99607.84;5052624;28;20445;-56
2021/12/10 01:54:48;;;;;;;;;;;;;;;1.81;100.00;99613.34;5052101;28;19925;-57
2021/12/10 01:57:15;;;;;;;;;;;;;;;1.78;100.00;99602.28;5084235;28;19929;-56
2021/12/10 01:59:43;;;;;;;;;;;;;;;1.76;100.00;99601.50;5084708;28;19925;-57
2021/12/10 02:02:14;;;;;;;;;;;;;;;1.75;100.00;99592.91;5067539;28;19929;-57
2021/12/10 02:04:42;;;;;;;;;;;;;;;1.76;100.00;99592.00;5055015;28;20421;-56
2021/12/10 02:07:09;;;;;;;;;;;;;;;1.55;100.00;99593.84;5054856;28;19931;-55
2021/12/10 02:09:36;;;;;;;;;;;;;;;1.62;100.00;99587.47;5053637;28;19978;-56
2021/12/10 02:12:03;;;;;;;;;;;;;;;1.60;100.00;99586.69;5050118;28;19929;-56
2021/12/10 02:14:30;;;;;;;;;;;;;;;1.55;100.00;99574.88;5041232;28;19944;-56
2021/12/10 02:16:59;;;;;;;;;;;;;;;1.56;100.00;99568.78;5032901;28;19929;-53
2021/12/10 02:19:26;;;;;;;;;;;;;;;1.57;100.00;99562.66;5031601;28;19991;-55
2021/12/10 02:21:52;;;;;;;;;;;;;;;1.58;100.00;99551.41;5066056;28;19979;-50
2021/12/10 02:24:20;;;;;;;;;;;;;;;1.54;100.00;99558.50;5032247;28;20075;-53
2021/12/10 02:26:51;;;;;;;;;;;;;;;1.45;100.00;99546.81;5031897;28;19925;-51
2021/12/10 02:29:19;;;;;;;;;;;;;;;1.48;100.00;99538.88;5031964;28;19929;-50
2021/12/10 02:31:46;;;;;;;;;;;;;;;1.50;100.00;99539.66;5045864;28;19975;-52
2021/12/10 02:34:13;;;;;;;;;;;;;;;1.48;100.00;99536.28;5065747;28;19925;-51
2021/12/10 02:36:42;;;;;;;;;;;;;;;1.45;100.00;99528.66;5034746;28;19975;-50
2021/12/10 02:39:12;;;;;;;;;;;;;;;1.41;100.00;99518.53;5033701;28;19929;-52
2021/12/10 02:41:39;;;;;;;;;;;;;;;1.38;100.00;99509.16;5030539;28;19929;-53
2021/12/10 02:44:07;;;;;;;;;;;;;;;1.40;100.00;99507.31;5031609;28;20059;-52
2021/12/10 02:46:34;;;;;;;;;;;;;;;1.38;100.00;99500.53;5062538;28;20442;-53
2021/12/10 02:49:00;;;;;;;;;;;;;;;1.31;100.00;99494.81;5029868;28;19934;-50
2021/12/10 02:51:27;;;;;;;;;;;;;;;1.36;100.00;99485.06;5030662;28;19936;-51
2021/12/10 02:53:54;;;;;;;;;;;;;;;1.37;100.00;99485.91;5063146;28;19925;-55
2021/12/10 02:56:21;;;;;;;;;;;;;;;1.34;100.00;99485.13;5063297;28;19925;-55
2021/12/10 02:58:50;;;;;;;;;;;;;;;1.33;100.00;99485.22;5062969;28;19933;-54
2021/12/10 03:01:18;;;;;;;;;;;;;;;1.28;100.00;99475.09;5061931;28;19959;-56
2021/12/10 03:03:45;;;;;;;;;;;;;;;1.19;100.00;99472.94;5031317;28;19932;-55
2021/12/10 03:06:13;;;;;;;;;;;;;;;1.20;100.00;99466.00;5031433;28;19979;-57
2021/12/10 03:08:41;;;;;;;;;;;;;;;1.33;100.00;99454.13;5032006;28;19987;-57
2021/12/10 03:11:09;;;;;;;;;;;;;;;1.28;100.00;99461.28;5043142;28;20063;-57
2021/12/10 03:13:35;;;;;;;;;;;;;;;1.27;100.00;99454.41;5033911;28;20323;-56
2021/12/10 03:16:02;;;;;;;;;;;;;;;1.25;100.00;99457.09;5071232;28;19975;-56
2021/12/10 03:18:29;;;;;;;;;;;;;;;1.20;100.00;99453.03;5036778;28;20372;-57
2021/12/10 03:20:55;;;;;;;;;;;;;;;1.17;100.00;99449.72;5041048;28;19968;-56
2021/12/10 03:23:22;;;;;;;;;;;;;;;1.15;100.00;99451.53;5040945;28;20404;-57
2021/12/10 03:25:49;;;;;;;;;;;;;;;1.18;100.00;99438.41;5043712;28;19925;-53
2021/12/10 03:28:15;;;;;;;;;;;;;;;1.22;100.00;99430.50;5072550;28;19979;-55
2021/12/10 03:30:44;;;;;;;;;;;;;;;1.13;100.00;99422.28;5042925;28;20327;-55
2021/12/10 03:33:11;;;;;;;;;;;;;;;1.15;100.00;99423.03;5046306;28;19925;-55
2021/12/10 03:35:41;;;;;;;;;;;;;;;1.17;100.00;99416.03;5043044;28;19932;-55
2021/12/10 03:38:10;;;;;;;;;;;;;;;1.15;100.00;99417.84;5033155;28;19925;-54
2021/12/10 03:40:36;;;;;;;;;;;;;;;1.15;100.00;99407.50;5049168;28;19932;-56
2021/12/10 03:43:03;;;;;;;;;;;;;;;1.16;100.00;99403.16;5041878;28;19976;-55
2021/12/10 03:45:31;;;;;;;;;;;;;;;1.10;100.00;99400.88;5063994;28;19925;-56
2021/12/10 03:47:59;;;;;;;;;;;;;;;1.10;100.00;99404.28;5041078;28;19925;-53
2021/12/10 03:50:27;;;;;;;;;;;;;;;1.22;100.00;99397.66;5040180;28;19933;-53
2021/12/10 03:52:54;;;;;;;;;;;;;;;1.21;100.00;99388.22;5048958;28;19935;-56
2021/12/10 03:55:22;;;;;;;;;;;;;;;1.19;100.00;99390.06;5045883;28;20372;-56
2021/12/10 03:57:49;;;;;;;;;;;;;;;1.17;100.00;99384.09;5034588;28;19970;-56
2021/12/10 04:00:17;;;;;;;;;;;;;;;1.17;100.00;99382.38;5077800;28;19929;-54
2021/12/10 04:02:43;;;;;;;;;;;;;;;1.18;100.00;99381.44;5047515;28;19925;-55
2021/12/10 04:05:10;;;;;;;;;;;;;;;1.25;100.00;99379.38;5065218;28;20067;-54
2021/12/10 04:07:37;;;;;;;;;;;;;;;1.18;100.00;99367.66;5071978;28;19929;-57
2021/12/10 04:10:04;;;;;;;;;;;;;;;1.20;100.00;99375.34;5035362;28;20454;-56
2021/12/10 04:12:31;;;;;;;;;;;;;;;1.23;100.00;99370.88;5046844;28;19943;-55
2021/12/10 04:14:58;;;;;;;;;;;;;;;1.14;100.00;99372.13;5042638;28;20002;-55
2021/12/10 04:17:25;;;;;;;;;;;;;;;1.18;100.00;99371.06;5035969;28;19947;-54
2021/12/10 04:19:51;;;;;;;;;;;;;;;1.23;100.00;99365.69;5034320;28;19947;-57
2021/12/10 04:22:19;;;;;;;;;;;;;;;1.26;100.00;99359.50;5073539;28;19952;-55
2021/12/10 04:24:46;;;;;;;;;;;;;;;1.21;100.00;99351.13;5040124;28;19928;-54
2021/12/10 04:27:13;;;;;;;;;;;;;;;1.24;100.00;99351.81;5080064;28;19924;-54
2021/12/10 04:29:40;;;;;;;;;;;;;;;1.23;100.00;99337.19;5040033;28;19932;-54
2021/12/10 04:32:07;;;;;;;;;;;;;;;1.24;100.00;99331.09;5039007;28;19933;-54
2021/12/10 04:34:33;;;;;;;;;;;;;;;1.23;100.00;99331.16;5072313;28;20020;-50
2021/12/10 04:37:01;;;;;;;;;;;;;;;1.25;100.00;99327.56;5045319;28;19925;-48
2021/12/10 04:39:29;;;;;;;;;;;;;;;1.25;100.00;99322.41;5045773;28;19925;-51
2021/12/10 04:41:56;;;;;;;;;;;;;;;1.30;100.00;99327.34;5047706;28;19925;-52
2021/12/10 04:44:23;;;;;;;;;;;;;;;1.23;100.00;99323.38;5049278;28;19929;-52
2021/12/10 04:46:50;;;;;;;;;;;;;;;1.25;100.00;99313.78;5034431;28;21371;-56
2021/12/10 04:49:17;;;;;;;;;;;;;;;1.23;100.00;99318.19;5042280;28;19979;-53
2021/12/10 04:51:52;;;;;;;;;;;;;;;1.22;100.00;99306.19;5040411;28;19971;-52
2021/12/10 04:54:19;;;;;;;;;;;;;;;1.19;100.00;99299.41;5046550;28;19925;-55
2021/12/10 04:56:47;;;;;;;;;;;;;;;1.15;100.00;99296.13;5034404;28;19948;-52
2021/12/10 04:59:16;;;;;;;;;;;;;;;1.21;100.00;99288.97;5055047;28;19970;-53
2021/12/10 05:01:42;;;;;;;;;;;;;;;1.26;100.00;99286.97;5033015;28;20469;-55
2021/12/10 05:04:10;;;;;;;;;;;;;;;1.20;100.00;99280.38;5043689;28;19924;-55
2021/12/10 05:06:37;;;;;;;;;;;;;;;1.35;100.00;99278.75;5047477;28;19928;-57
2021/12/10 05:09:05;;;;;;;;;;;;;;;1.26;100.00;99271.44;5076337;28;19929;-53
2021/12/10 05:11:31;;;;;;;;;;;;;;;1.26;100.00;99264.50;5043851;28;19925;-55
2021/12/10 05:13:58;;;;;;;;;;;;;;;1.30;100.00;99272.97;5068862;28;19933;-53
2021/12/10 05:16:26;;;;;;;;;;;;;;;1.30;100.00;99265.19;5051550;28;19979;-57
2021/12/10 05:18:57;;;;;;;;;;;;;;;1.27;100.00;99260.16;5054666;28;20015;-55
2021/12/10 05:21:28;;;;;;;;;;;;;;;1.24;100.00;99257.72;5055626;28;20392;-57
2021/12/10 05:23:55;;;;;;;;;;;;;;;1.27;100.00;99249.78;5052090;28;19925;-52
2021/12/10 05:26:24;;;;;;;;;;;;;;;1.30;100.00;99253.06;5084844;28;20408;-54
2021/12/10 05:28:51;;;;;;;;;;;;;;;1.25;100.00;99249.03;5084326;28;20388;-53
2021/12/10 05:31:17;;;;;;;;;;;;;;;1.27;100.00;99242.88;5083897;28;19932;-53
2021/12/10 05:33:44;;;;;;;;;;;;;;;1.26;100.00;99240.38;5052716;28;19925;-57
2021/12/10 05:36:11;;;;;;;;;;;;;;;1.36;100.00;99244.13;5055626;28;20381;-55
2021/12/10 05:38:37;;;;;;;;;;;;;;;1.33;100.00;99239.94;5055719;28;19928;-53
2021/12/10 05:41:06;;;;;;;;;;;;;;;1.30;100.00;99234.09;5055664;28;19925;-53
2021/12/10 05:43:33;;;;;;;;;;;;;;;1.32;100.00;99230.53;5055661;28;19932;-53
2021/12/10 05:46:00;;;;;;;;;;;;;;;1.34;100.00;99226.06;5055692;28;19954;-57
2021/12/10 05:48:27;;;;;;;;;;;;;;;1.39;100.00;99228.44;5055587;28;19929;-56
2021/12/10 05:50:54;;;;;;;;;;;;;;;1.40;100.00;99222.31;5055316;28;19925;-57
2021/12/10 05:53:20;;;;;;;;;;;;;;;1.37;100.00;99221.66;5087226;28;19929;-57
2021/12/10 05:55:48;;;;;;;;;;;;;;;1.39;100.00;99210.31;5053780;28;19925;-56
2021/12/10 05:58:14;;;;;;;;;;;;;;;1.35;100.00;99214.81;5052650;28;19925;-57
2021/12/10 06:00:43;;;;;;;;;;;;;;;1.41;100.00;99212.81;5054408;28;19929;-56
2021/12/10 06:03:10;;;;;;;;;;;;;;;1.38;100.00;99208.63;5055299;28;19935;-53
2021/12/10 06:05:37;;;;;;;;;;;;;;;1.34;100.00;99210.53;5055135;28;19955;-56
2021/12/10 06:08:04;;;;;;;;;;;;;;;1.34;100.00;99209.72;5055311;28;20380;-55
2021/12/10 06:10:31;;;;;;;;;;;;;;;1.34;100.00;99207.13;5055098;28;19929;-55
2021/12/10 06:12:57;;;;;;;;;;;;;;;1.35;100.00;99207.03;5055070;28;19925;-55
2021/12/10 06:15:25;;;;;;;;;;;;;;;1.35;100.00;99203.63;5054691;28;19964;-54
2021/12/10 06:17:52;;;;;;;;;;;;;;;1.35;100.00;99193.25;5054348;28;19925;-56
2021/12/10 06:20:22;;;;;;;;;;;;;;;1.36;100.00;99187.13;5052073;28;19924;-57
2021/12/10 06:22:49;;;;;;;;;;;;;;;1.39;100.00;99187.00;5051610;28;19936;-57
2021/12/10 06:25:15;;;;;;;;;;;;;;;1.47;100.00;99183.97;5052513;28;19929;-57
2021/12/10 06:27:44;;;;;;;;;;;;;;;1.37;100.00;99183.63;5053056;28;19956;-57
2021/12/10 06:30:13;;;;;;;;;;;;;;;1.38;100.00;99189.63;5054435;28;20311;-55
2021/12/10 06:32:40;;;;;;;;;;;;;;;1.44;100.00;99181.56;5054222;28;19994;-55
2021/12/10 06:35:08;;;;;;;;;;;;;;;1.38;100.00;99187.06;5051887;28;19940;-55
2021/12/10 06:37:36;;;;;;;;;;;;;;;1.38;100.00;99182.72;5083605;28;19925;-56
2021/12/10 06:40:04;;;;;;;;;;;;;;;1.40;100.00;99183.47;5051637;28;19951;-53
2021/12/10 06:42:31;;;;;;;;;;;;;;;1.44;100.00;99181.56;5053845;28;19970;-52
2021/12/10 06:45:04;;;;;;;;;;;;;;;1.50;100.00;99186.38;5054461;28;20363;-54
2021/12/10 06:47:30;;;;;;;;;;;;;;;1.49;100.00;99188.16;5067756;28;19924;-58
2021/12/10 06:49:57;;;;;;;;;;;;;;;1.42;100.00;99191.16;5051845;28;19925;-50
2021/12/10 06:52:24;;;;;;;;;;;;;;;1.41;100.00;99187.72;5052697;28;19994;-50
2021/12/10 06:54:51;;;;;;;;;;;;;;;1.43;100.00;99185.06;5052030;28;20388;-51
2021/12/10 06:57:17;;;;;;;;;;;;;;;1.48;100.00;99183.88;5051118;28;19929;-52
2021/12/10 06:59:44;;;;;;;;;;;;;;;1.50;100.00;99179.47;5053827;28;20341;-57
2021/12/10 07:02:11;;;;;;;;;;;;;;;1.46;100.00;99177.09;5080937;28;19925;-54
2021/12/10 07:04:41;;;;;;;;;;;;;;;1.41;100.00;99177.38;5051503;28;20349;-54
2021/12/10 07:07:12;;;;;;;;;;;;;;;1.44;100.00;99186.72;5050833;28;19983;-58
2021/12/10 07:09:42;;;;;;;;;;;;;;;1.44;100.00;99190.16;5051578;28;19987;-59
2021/12/10 07:12:09;;;;;;;;;;;;;;;1.37;100.00;99175.88;5067729;28;19971;-53
2021/12/10 07:14:36;;;;;;;;;;;;;;;1.44;100.00;99177.19;5082809;28;19936;-53
2021/12/10 07:17:03;;;;;;;;;;;;;;;1.42;100.00;99178.19;5082715;28;19932;-56
2021/12/10 07:19:30;;;;;;;;;;;;;;;1.37;100.00;99175.88;5085862;28;19924;-53
2021/12/10 07:21:56;;;;;;;;;;;;;;;1.43;100.00;99175.53;5051266;28;19925;-57
2021/12/10 07:24:23;;;;;;;;;;;;;;;1.43;100.00;99174.69;5050703;28;19987;-57
2021/12/10 07:26:50;;;;;;;;;;;;;;;1.43;100.00;99179.88;5049870;28;19950;-56
2021/12/10 07:29:17;;;;;;;;;;;;;;;1.51;100.00;99180.28;5050822;28;19924;-57
2021/12/10 07:31:44;;;;;;;;;;;;;;;1.54;100.00;99176.72;5064836;28;19929;-57
2021/12/10 07:34:11;;;;;;;;;;;;;;;1.49;100.00;99185.56;5050856;28;19925;-53
2021/12/10 07:36:40;;;;;;;;;;;;;;;1.47;100.00;99181.38;5049397;28;19924;-56
2021/12/10 07:39:07;;;;;;;;;;;;;;;1.49;100.00;99185.56;5051123;28;19929;-56
2021/12/10 07:41:35;;;;;;;;;;;;;;;1.44;100.00;99182.38;5048884;28;20336;-56
2021/12/10 07:44:02;;;;;;;;;;;;;;;1.49;100.00;99176.97;5083603;28;20372;-52
2021/12/10 07:46:28;;;;;;;;;;;;;;;1.42;100.00;99179.06;5053434;28;19952;-49
2021/12/10 07:48:55;;;;;;;;;;;;;;;1.43;100.00;99187.66;5085369;28;19925;-57
2021/12/10 07:51:23;;;;;;;;;;;;;;;1.47;100.00;99187.41;5082216;28;19933;-57
2021/12/10 07:53:53;;;;;;;;;;;;;;;1.53;100.00;99186.25;5051139;28;20322;-57
2021/12/10 07:56:20;;;;;;;;;;;;;;;1.47;100.00;99178.78;5053048;28;19978;-53
2021/12/10 07:58:46;;;;;;;;;;;;;;;1.56;100.00;99182.66;5085303;28;19932;-52
2021/12/10 08:01:16;;;;;;;;;;;;;;;1.61;100.00;99185.81;5050205;28;20443;-57
2021/12/10 08:03:43;;;;;;;;;;;;;;;1.56;100.00;99186.06;5050359;28;19925;-57
2021/12/10 08:06:10;;;;;;;;;;;;;;;1.64;100.00;99183.91;5049953;28;19928;-49
2021/12/10 08:08:36;;;;;;;;;;;;;;;1.65;100.00;99185.56;5048897;28;19928;-48
2021/12/10 08:11:04;;;;;;;;;;;;;;;1.60;100.00;99187.56;5049893;28;19941;-55
2021/12/10 08:13:31;;;;;;;;;;;;;;;1.74;100.00;99193.75;5050260;28;19925;-54
2021/12/10 08:15:57;;;;;;;;;;;;;;;1.69;100.00;99199.19;5048846;28;19929;-57
2021/12/10 08:18:24;;;;;;;;;;;;;;;1.64;100.00;99190.84;5052324;28;20012;-56
2021/12/10 08:20:54;;;;;;;;;;;;;;;1.74;100.00;99189.41;5051440;28;20015;-52
2021/12/10 08:23:20;;;;;;;;;;;;;;;1.75;100.00;99185.91;5052692;28;19975;-57
2021/12/10 08:25:47;;;;;;;;;;;;;;;1.82;100.00;99195.00;5052753;28;20364;-55
2021/12/10 08:28:14;;;;;;;;;;;;;;;1.80;100.00;99193.41;5082595;28;19925;-52
2021/12/10 08:30:41;;;;;;;;;;;;;;;1.82;100.00;99192.41;5081068;28;20421;-53
2021/12/10 08:33:14;;;;;;;;;;;;;;;1.85;100.00;99191.41;5052381;28;19939;-55
2021/12/10 08:35:45;;;;;;;;;;;;;;;1.88;100.00;99190.41;5081483;28;20369;-57
2021/12/10 08:38:12;;;;;;;;;;;;;;;1.96;100.00;99193.41;5052442;28;19925;-50
2021/12/10 08:40:43;;;;;;;;;;;;;;;1.91;100.00;99191.09;5089031;28;19932;-56
2021/12/10 08:43:10;;;;;;;;;;;;;;;2.02;100.00;99188.72;5056694;28;19924;-58
2021/12/10 08:45:37;;;;;;;;;;;;;;;2.03;100.00;99195.59;5053083;28;19929;-53
2021/12/10 08:48:04;;;;;;;;;;;;;;;2.09;100.00;99197.00;5053453;28;20307;-53
2021/12/10 08:50:31;;;;;;;;;;;;;;;2.13;100.00;99185.53;5086710;28;19974;-55
2021/12/10 08:53:03;;;;;;;;;;;;;;;2.10;100.00;99198.66;5088312;28;20375;-53
2021/12/10 08:55:30;;;;;;;;;;;;;;;2.05;100.00;99182.53;5056141;28;19955;-54
2021/12/10 08:57:57;;;;;;;;;;;;;;;2.13;100.00;99189.88;5055428;28;19925;-54
2021/12/10 09:00:25;;;;;;;;;;;;;;;2.17;100.00;99187.03;5085431;28;19947;-49
2021/12/10 09:02:52;;;;;;;;;;;;;;;2.28;100.00;99195.97;5051275;28;19979;-53
2021/12/10 09:05:19;;;;;;;;;;;;;;;2.26;100.00;99195.19;5053465;28;20023;-52
2021/12/10 09:07:46;;;;;;;;;;;;;;;2.30;100.00;99196.69;5051881;28;19931;-52
2021/12/10 09:10:14;;;;;;;;;;;;;;;2.36;100.00;99196.38;5053819;28;20342;-53
2021/12/10 09:12:41;;;;;;;;;;;;;;;2.35;100.00;99205.06;5052845;28;19935;-54
2021/12/10 09:15:09;;;;;;;;;;;;;;;2.45;99.58;99206.19;5085112;28;19925;-55
2021/12/10 09:17:36;;;;;;;;;;;;;;;2.54;98.93;99210.84;5050638;28;19932;-55
2021/12/10 09:20:05;;;;;;;;;;;;;;;2.54;99.83;99212.63;5086399;28;19929;-57
2021/12/10 09:22:32;;;;;;;;;;;;;;;2.53;100.00;99211.78;5056191;28;20020;-57
2021/12/10 09:24:59;;;;;;;;;;;;;;;2.54;99.85;99210.84;5069369;28;20359;-57
2021/12/10 09:27:25;;;;;;;;;;;;;;;2.57;99.50;99212.44;5084561;28;19929;-57
2021/12/10 09:29:53;;;;;;;;;;;;;;;2.63;99.19;99206.91;5052866;28;20348;-57
2021/12/10 09:32:24;;;;;;;;;;;;;;;2.72;98.29;99205.53;5049597;28;20388;-53
2021/12/10 09:34:51;;;;;;;;;;;;;;;2.68;98.86;99204.03;5055930;28;19970;-57
2021/12/10 09:37:18;;;;;;;;;;;;;;;2.71;98.56;99203.84;5056199;28;19990;-56
2021/12/10 09:39:48;;;;;;;;;;;;;;;2.76;98.22;99208.78;5052403;28;19974;-57
2021/12/10 09:42:15;;;;;;;;;;;;;;;2.86;97.23;99208.16;5050769;28;19936;-56
2021/12/10 09:44:42;;;;;;;;;;;;;;;2.85;97.00;99203.88;5051851;28;19948;-56
2021/12/10 09:47:14;;;;;;;;;;;;;;;2.81;97.82;99197.19;5047055;28;19986;-55
2021/12/10 09:49:43;;;;;;;;;;;;;;;2.87;97.46;99207.19;5082100;28;19929;-54
2021/12/10 09:52:10;;;;;;;;;;;;;;;2.90;97.91;99205.38;5051434;28;19967;-56
2021/12/10 09:54:36;;;;;;;;;;;;;;;2.92;96.98;99208.69;5049840;28;20024;-56
2021/12/10 09:57:05;;;;;;;;;;;;;;;2.94;97.65;99212.03;5084432;28;19925;-55
2021/12/10 09:59:34;;;;;;;;;;;;;;;2.88;96.79;99205.47;5055659;28;19990;-53
2021/12/10 10:02:00;;;;;;;;;;;;;;;2.98;97.32;99209.16;5052119;28;19928;-52
2021/12/10 10:04:28;;;;;;;;;;;;;;;3.01;96.86;99213.34;5051568;28;20430;-52
2021/12/10 10:06:59;;;;;;;;;;;;;;;2.96;96.74;99220.56;5051066;28;20392;-56
2021/12/10 10:09:26;;;;;;;;;;;;;;;2.98;97.18;99221.31;5033635;28;19925;-50
2021/12/10 10:11:55;;;;;;;;;;;;;;;3.03;97.30;99217.53;5050345;28;19929;-55
2021/12/10 10:14:22;;;;;;;;;;;;;;;3.09;95.13;99211.13;5051202;28;19925;-56
2021/12/10 10:16:49;;;;;;;;;;;;;;;3.07;96.87;99219.94;5053667;28;19925;-56
2021/12/10 10:19:17;;;;;;;;;;;;;;;3.09;96.02;99213.72;5051700;28;20345;-57
2021/12/10 10:21:45;;;;;;;;;;;;;;;3.11;96.57;99206.69;5051372;28;19928;-56
2021/12/10 10:24:12;;;;;;;;;;;;;;;3.22;95.48;99212.06;5083114;28;19935;-56
2021/12/10 10:26:41;;;;;;;;;;;;;;;3.18;96.00;99210.56;5052406;28;19925;-56
2021/12/10 10:29:13;;;;;;;;;;;;;;;3.27;96.30;99213.53;5052169;28;20387;-57
2021/12/10 10:31:46;;;;;;;;;;;;;;;3.26;96.61;99212.72;5049583;28;19933;-52
2021/12/10 10:34:13;;;;;;;;;;;;;;;3.34;95.07;99217.44;5054795;28;19925;-53
2021/12/10 10:36:40;;;;;;;;;;;;;;;3.38;94.95;99218.91;5054719;28;19951;-49
2021/12/10 10:39:14;;;;;;;;;;;;;;;3.45;93.71;99221.97;5085165;28;20391;-55
2021/12/10 10:41:46;;;;;;;;;;;;;;;3.50;94.02;99205.16;5050767;28;19925;-55
2021/12/10 10:44:13;;;;;;;;;;;;;;;3.52;93.44;99211.09;5050671;28;19932;-56
2021/12/10 10:46:40;;;;;;;;;;;;;;;3.53;94.36;99202.38;5053241;28;19929;-56
2021/12/10 10:49:06;;;;;;;;;;;;;;;3.59;93.38;99198.56;5085005;28;19968;-56
2021/12/10 10:51:35;;;;;;;;;;;;;;;3.62;93.08;99200.16;5050749;28;19932;-56
2021/12/10 10:54:04;;;;;;;;;;;;;;;3.65;93.11;99205.97;5050072;28;20287;-56
2021/12/10 10:56:36;;;;;;;;;;;;;;;3.65;92.71;99194.75;5053506;28;19979;-54
2021/12/10 10:59:22;;;;;;;;;;;;;;;3.68;92.80;99202.34;5050264;28;20300;-56
2021/12/10 11:01:57;;;;;;;;;;;;;;;3.77;92.90;99195.75;5047666;28;20392;-55
2021/12/10 11:04:33;;;;;;;;;;;;;;;3.82;90.50;99194.53;5049020;28;19998;-56
2021/12/10 11:07:09;;;;;;;;;;;;;;;3.81;91.92;99194.63;5049444;28;19929;-56
2021/12/10 11:09:41;;;;;;;;;;;;;;;3.81;90.95;99192.84;5053467;28;19925;-56
2021/12/10 11:12:12;;;;;;;;;;;;;;;3.86;91.22;99197.78;5053277;28;19972;-56
2021/12/10 11:14:42;;;;;;;;;;;;;;;3.93;92.25;99190.38;5050450;28;19928;-54
2021/12/10 11:17:15;;;;;;;;;;;;;;;3.94;91.09;99197.25;5048862;28;19931;-55
2021/12/10 11:19:56;;;;;;;;;;;;;;;3.92;90.56;99189.56;5053073;28;20031;-56
2021/12/10 11:22:23;;;;;;;;;;;;;;;3.91;90.56;99195.69;5048473;28;19925;-54
2021/12/10 11:24:56;;;;;;;;;;;;;;;4.01;88.37;99196.78;5048730;28;19928;-53
2021/12/10 11:27:28;;;;;;;;;;;;;;;3.96;89.89;99196.25;5050203;28;19947;-58
2021/12/10 11:30:02;;;;;;;;;;;;;;;4.00;89.51;99200.31;5048890;28;20403;-56
2021/12/10 11:32:35;;;;;;;;;;;;;;;4.03;88.79;99192.31;5080279;28;19928;-55
2021/12/10 11:35:21;;;;;;;;;;;;;;;4.01;88.34;99199.38;5049647;28;19994;-56
2021/12/10 11:37:48;;;;;;;;;;;;;;;4.02;88.50;99200.22;5049259;28;19929;-54
2021/12/10 11:40:33;;;;;;;;;;;;;;;4.02;88.28;99197.59;5049788;28;19928;-54
2021/12/10 11:43:16;;;;;;;;;;;;;;;4.06;88.06;99191.28;5048231;28;19928;-52
2021/12/10 11:45:50;;;;;;;;;;;;;;;4.09;86.01;99203.25;5048531;28;19971;-52
2021/12/10 11:48:24;;;;;;;;;;;;;;;4.05;87.99;99192.22;5051449;28;19924;-52
2021/12/10 11:51:11;;;;;;;;;;;;;;;4.03;87.89;99200.09;5053300;28;19929;-53
2021/12/10 11:53:52;;;;;;;;;;;;;;;3.99;87.75;99205.63;5050816;28;19933;-51
2021/12/10 11:56:21;;;;;;;;;;;;;;;4.02;87.21;99198.47;5048091;28;19978;-53
2021/12/10 11:58:57;;;;;;;;;;;;;;;3.98;87.38;99201.34;5048756;28;20406;-51
2021/12/10 12:01:24;;;;;;;;;;;;;;;4.01;87.08;99203.78;5084647;28;20422;-52
2021/12/10 12:03:51;;;;;;;;;;;;;;;4.06;87.05;99206.88;5053055;28;19979;-50
2021/12/10 12:06:18;;;;;;;;;;;;;;;4.06;86.01;99209.50;5053145;28;20269;-55
2021/12/10 12:08:45;;;;;;;;;;;;;;;4.10;85.78;99200.56;5051132;28;19925;-55
2021/12/10 12:11:11;;;;;;;;;;;;;;;4.09;85.92;99195.44;5048981;28;19932;-53
2021/12/10 12:13:57;;;;;;;;;;;;;;;4.07;86.30;99203.38;5048012;28;19929;-56
2021/12/10 12:16:26;;;;;;;;;;;;;;;4.09;85.65;99211.06;5047926;28;19931;-56
2021/12/10 12:18:57;;;;;;;;;;;;;;;4.09;85.91;99211.91;5079971;28;19971;-55
2021/12/10 12:27:08;;;;;;;;;;;;;;;4.12;85.76;99211.72;5048689;28;19925;-56
2021/12/10 12:29:56;;;;;;;;;;;;;;;4.13;86.29;99223.78;5063394;28;19929;-57
2021/12/10 12:32:26;;;;;;;;;;;;;;;4.10;86.27;99226.56;5052689;28;20396;-57
2021/12/10 12:34:53;;;;;;;;;;;;;;;4.18;85.12;99226.91;5084052;28;20423;-55
2021/12/10 12:37:21;;;;;;;;;;;;;;;4.15;84.84;99228.91;5080199;28;19979;-55
2021/12/10 12:40:08;;;;;;;;;;;;;;;4.10;85.62;99236.97;5075869;28;19924;-57
2021/12/10 12:42:36;;;;;;;;;;;;;;;4.14;84.14;99241.06;5048331;28;20023;-56
2021/12/10 12:45:05;;;;;;;;;;;;;;;4.08;85.88;99233.66;5048452;28;20392;-56
2021/12/10 12:47:53;;;;;;;;;;;;;;;4.01;84.32;99238.41;5048691;28;19935;-57
2021/12/10 12:50:41;;;;;;;;;;;;;;;4.13;85.03;99241.16;5079380;28;19999;-56
2021/12/10 12:53:10;;;;;;;;;;;;;;;4.07;85.93;99234.59;5048524;28;20007;-56
2021/12/10 12:55:50;;;;;;;;;;;;;;;4.12;86.73;99242.94;5048886;28;19925;-57
2021/12/10 12:58:28;;;;;;;;;;;;;;;4.11;86.18;99243.03;5049363;28;19925;-57
2021/12/10 13:01:16;;;;;;;;;;;;;;;4.18;86.51;99247.72;5077928;28;19925;-57
2021/12/10 13:03:53;;;;;;;;;;;;;;;4.19;86.16;99254.63;5063982;28;20300;-57
2021/12/10 13:06:49;;;;;;;;;;;;;;;4.24;84.44;99241.31;5048133;28;19932;-57
2021/12/10 13:09:18;;;;;;;;;;;;;;;4.23;86.41;99250.88;5047585;28;19925;-55
2021/12/10 13:11:56;;;;;;;;;;;;;;;4.29;87.36;99254.84;5051390;28;19925;-50
2021/12/10 13:14:29;;;;;;;;;;;;;;;4.24;89.58;99262.16;5082183;28;19932;-49
2021/12/10 13:17:00;;;;;;;;;;;;;;;4.14;90.07;99259.28;5050997;28;19932;-52
2021/12/10 13:19:28;;;;;;;;;;;;;;;4.27;87.96;99258.47;5080888;28;20012;-52